createdAt,value
2019-01-30T00:00:31.920Z,0
2019-01-30T00:01:41.904Z,0
2019-01-30T00:02:51.872Z,0
2019-01-30T00:04:01.840Z,0
2019-01-30T00:05:11.818Z,0
2019-01-30T00:06:21.839Z,0
2019-01-30T00:07:31.826Z,0
2019-01-30T00:08:41.544Z,0
2019-01-30T00:09:51.514Z,0
2019-01-30T00:11:01.489Z,0
2019-01-30T00:12:12.314Z,0
2019-01-30T00:13:22.285Z,0
2019-01-30T00:14:32.261Z,0
2019-01-30T00:15:42.237Z,0
2019-01-30T00:16:52.207Z,0
2019-01-30T00:18:02.273Z,0
2019-01-30T00:19:12.248Z,0
2019-01-30T00:20:22.214Z,0
2019-01-30T00:21:32.185Z,0
2019-01-30T00:22:42.178Z,0
2019-01-30T00:23:51.920Z,0
2019-01-30T00:25:01.903Z,0
2019-01-30T00:26:11.874Z,0
2019-01-30T00:27:21.841Z,0
2019-01-30T00:28:31.813Z,0
2019-01-30T00:29:41.968Z,0
2019-01-30T00:30:51.938Z,0
2019-01-30T00:32:01.904Z,0
2019-01-30T00:33:11.946Z,0
2019-01-30T00:34:21.916Z,0
2019-01-30T00:35:31.934Z,0
2019-01-30T00:36:41.911Z,0
2019-01-30T00:37:51.882Z,0
2019-01-30T00:39:01.853Z,0
2019-01-30T00:40:11.574Z,0
2019-01-30T00:41:21.648Z,0
2019-01-30T00:42:31.621Z,0
2019-01-30T00:43:41.596Z,0
2019-01-30T00:44:51.567Z,0
2019-01-30T00:46:01.535Z,0
2019-01-30T00:47:20.484Z,0
2019-01-30T00:48:30.459Z,0
2019-01-30T00:49:40.430Z,0
2019-01-30T00:50:50.398Z,0
2019-01-30T00:52:00.423Z,0
2019-01-30T00:53:10.506Z,0
2019-01-30T00:54:20.492Z,0
2019-01-30T00:55:30.222Z,0
2019-01-30T00:56:40.191Z,0
2019-01-30T00:57:50.164Z,0
2019-01-30T00:59:00.207Z,0
2019-01-30T01:00:19.324Z,0
2019-01-30T01:01:29.294Z,0
2019-01-30T01:02:39.267Z,0
2019-01-30T01:03:49.244Z,0
2019-01-30T01:04:59.320Z,0
2019-01-30T01:06:09.288Z,0
2019-01-30T01:07:19.257Z,0
2019-01-30T01:08:29.229Z,0
2019-01-30T01:09:39.198Z,0
2019-01-30T01:10:49.292Z,0
2019-01-30T01:11:59.268Z,0
2019-01-30T01:13:09.240Z,0
2019-01-30T01:14:19.206Z,0
2019-01-30T01:15:29.181Z,0
2019-01-30T01:16:39.252Z,0
2019-01-30T01:17:49.227Z,0
2019-01-30T01:18:59.195Z,0
2019-01-30T01:20:09.178Z,0
2019-01-30T01:21:19.149Z,0
2019-01-30T01:22:29.275Z,0
2019-01-30T01:23:39.245Z,0
2019-01-30T01:24:49.212Z,0
2019-01-30T01:25:59.186Z,0
2019-01-30T01:27:09.168Z,0
2019-01-30T01:28:19.138Z,0
2019-01-30T01:29:29.117Z,0
2019-01-30T01:30:39.084Z,0
2019-01-30T01:31:49.054Z,0
2019-01-30T01:32:59.033Z,0
2019-01-30T01:34:09.117Z,0
2019-01-30T01:35:19.088Z,0
2019-01-30T01:36:29.059Z,0
2019-01-30T01:37:39.027Z,0
2019-01-30T01:38:49.002Z,0
2019-01-30T01:40:00.208Z,0
2019-01-30T01:41:10.202Z,0
2019-01-30T01:42:20.169Z,0
2019-01-30T01:43:30.150Z,0
2019-01-30T01:44:40.134Z,0
2019-01-30T01:45:50.152Z,0
2019-01-30T01:46:59.882Z,0
2019-01-30T01:48:09.853Z,0
2019-01-30T01:49:19.834Z,0
2019-01-30T01:50:29.805Z,0
2019-01-30T01:51:39.938Z,0
2019-01-30T01:52:49.912Z,0
2019-01-30T01:53:59.881Z,0
2019-01-30T01:55:09.868Z,0
2019-01-30T01:56:19.836Z,0
2019-01-30T01:57:29.527Z,0
2019-01-30T01:58:39.498Z,0
2019-01-30T01:59:49.599Z,0
2019-01-30T02:00:59.662Z,0
2019-01-30T02:02:09.687Z,0
2019-01-30T02:03:19.704Z,0
2019-01-30T02:04:29.691Z,0
2019-01-30T02:05:39.660Z,0
2019-01-30T02:06:49.627Z,0
2019-01-30T02:07:59.600Z,0
2019-01-30T02:09:09.617Z,0
2019-01-30T02:10:19.588Z,0
2019-01-30T02:11:29.556Z,0
2019-01-30T02:12:39.634Z,0
2019-01-30T02:13:49.601Z,0
2019-01-30T02:14:59.371Z,0
2019-01-30T02:16:09.349Z,0
2019-01-30T02:17:19.320Z,0
2019-01-30T02:18:29.290Z,0
2019-01-30T02:19:39.265Z,0
2019-01-30T02:20:49.246Z,0
2019-01-30T02:21:59.240Z,0
2019-01-30T02:23:09.219Z,0
2019-01-30T02:24:19.201Z,0
2019-01-30T02:25:28.844Z,0
2019-01-30T02:26:38.821Z,0
2019-01-30T02:27:48.795Z,0
2019-01-30T02:28:58.765Z,0
2019-01-30T02:30:08.766Z,0
2019-01-30T02:31:18.741Z,0
2019-01-30T02:32:28.836Z,0
2019-01-30T02:33:38.858Z,0
2019-01-30T02:34:48.845Z,0
2019-01-30T02:35:58.816Z,0
2019-01-30T02:37:08.815Z,0
2019-01-30T02:38:18.840Z,0
2019-01-30T02:39:28.817Z,0
2019-01-30T02:40:38.223Z,0
2019-01-30T02:41:48.192Z,0
2019-01-30T02:42:57.912Z,0
2019-01-30T02:44:07.881Z,0
2019-01-30T02:45:17.862Z,0
2019-01-30T02:46:27.854Z,0
2019-01-30T02:47:37.579Z,0
2019-01-30T02:48:47.555Z,0
2019-01-30T02:49:57.631Z,0
2019-01-30T02:51:07.607Z,0
2019-01-30T02:52:17.585Z,0
2019-01-30T02:53:27.575Z,0
2019-01-30T02:54:37.651Z,0
2019-01-30T02:55:47.481Z,0
2019-01-30T02:56:57.456Z,0
2019-01-30T02:58:07.429Z,0
2019-01-30T02:59:17.413Z,0
2019-01-30T03:00:27.393Z,0
2019-01-30T03:01:37.519Z,0
2019-01-30T03:02:47.510Z,0
2019-01-30T03:03:57.488Z,0
2019-01-30T03:05:07.503Z,0
2019-01-30T03:06:17.574Z,0
2019-01-30T03:07:27.598Z,0
2019-01-30T03:08:37.573Z,0
2019-01-30T03:09:47.542Z,0
2019-01-30T03:10:57.515Z,0
2019-01-30T03:12:07.520Z,0
2019-01-30T03:13:17.592Z,0
2019-01-30T03:14:27.567Z,0
2019-01-30T03:15:37.545Z,0
2019-01-30T03:16:47.516Z,0
2019-01-30T03:17:57.496Z,0
2019-01-30T03:19:07.482Z,0
2019-01-30T03:20:17.449Z,0
2019-01-30T03:21:27.422Z,0
2019-01-30T03:22:37.398Z,0
2019-01-30T03:23:47.375Z,0
2019-01-30T03:24:57.492Z,0
2019-01-30T03:26:07.226Z,0
2019-01-30T03:27:17.194Z,0
2019-01-30T03:28:27.165Z,0
2019-01-30T03:29:37.129Z,0
2019-01-30T03:30:47.211Z,0
2019-01-30T03:31:57.199Z,0
2019-01-30T03:33:07.340Z,0
2019-01-30T03:34:17.320Z,0
2019-01-30T03:35:27.294Z,0
2019-01-30T03:36:37.362Z,0
2019-01-30T03:37:47.335Z,0
2019-01-30T03:38:57.314Z,0
2019-01-30T03:40:07.327Z,0
2019-01-30T03:41:17.043Z,0
2019-01-30T03:42:27.065Z,0
2019-01-30T03:43:37.045Z,0
2019-01-30T03:44:47.019Z,0
2019-01-30T03:45:57.001Z,0
2019-01-30T03:47:06.983Z,0
2019-01-30T03:48:17.055Z,0
2019-01-30T03:49:27.121Z,0
2019-01-30T03:50:36.843Z,0
2019-01-30T03:51:46.822Z,0
2019-01-30T03:52:56.793Z,0
2019-01-30T03:54:06.814Z,0
2019-01-30T03:55:16.798Z,0
2019-01-30T03:56:26.780Z,0
2019-01-30T03:57:38.334Z,0
2019-01-30T03:58:48.305Z,0
2019-01-30T03:59:58.342Z,0
2019-01-30T04:01:08.327Z,0
2019-01-30T04:02:17.973Z,0
2019-01-30T04:03:27.945Z,0
2019-01-30T04:04:37.929Z,0
2019-01-30T04:05:47.996Z,0
2019-01-30T04:06:58.069Z,0
2019-01-30T04:08:08.047Z,0
2019-01-30T04:09:18.026Z,0
2019-01-30T04:10:28.008Z,0
2019-01-30T04:11:38.042Z,0
2019-01-30T04:12:48.026Z,0
2019-01-30T04:14:00.468Z,0
2019-01-30T04:15:10.388Z,0
2019-01-30T04:16:20.366Z,0
2019-01-30T04:17:30.439Z,0
2019-01-30T04:18:40.432Z,0
2019-01-30T04:19:50.416Z,0
2019-01-30T04:21:00.519Z,0
2019-01-30T04:22:10.499Z,0
2019-01-30T04:23:20.524Z,0
2019-01-30T04:24:30.278Z,0
2019-01-30T04:25:40.259Z,0
2019-01-30T04:26:50.234Z,0
2019-01-30T04:28:00.222Z,0
2019-01-30T04:29:10.292Z,0
2019-01-30T04:30:20.276Z,0
2019-01-30T04:31:40.757Z,0
2019-01-30T04:32:50.730Z,0
2019-01-30T04:34:00.455Z,0
2019-01-30T04:35:10.587Z,0
2019-01-30T04:36:20.564Z,0
2019-01-30T04:37:30.532Z,0
2019-01-30T04:38:40.501Z,0
2019-01-30T04:39:50.471Z,0
2019-01-30T04:41:00.556Z,0
2019-01-30T04:42:10.530Z,0
2019-01-30T04:43:20.502Z,0
2019-01-30T04:44:30.479Z,0
2019-01-30T04:45:40.490Z,0
2019-01-30T04:46:50.513Z,0
2019-01-30T04:48:00.576Z,0
2019-01-30T04:49:10.553Z,0
2019-01-30T04:50:20.280Z,0
2019-01-30T04:51:29.923Z,0
2019-01-30T04:52:39.948Z,0
2019-01-30T04:53:49.921Z,0
2019-01-30T04:54:59.891Z,0
2019-01-30T04:56:09.630Z,0
2019-01-30T04:57:19.607Z,0
2019-01-30T04:58:29.582Z,0
2019-01-30T04:59:39.550Z,0
2019-01-30T05:00:49.549Z,0
2019-01-30T05:01:59.719Z,0
2019-01-30T05:03:09.695Z,0
2019-01-30T05:04:19.774Z,0
2019-01-30T05:05:29.796Z,0
2019-01-30T05:06:39.770Z,0
2019-01-30T05:07:49.832Z,0
2019-01-30T05:09:00.931Z,0
2019-01-30T05:10:11.002Z,0
2019-01-30T05:11:20.975Z,0
2019-01-30T05:12:31.019Z,0
2019-01-30T05:13:40.988Z,0
2019-01-30T05:14:50.955Z,0
2019-01-30T05:16:01.031Z,0
2019-01-30T05:17:11.016Z,0
2019-01-30T05:18:20.993Z,0
2019-01-30T05:19:30.971Z,0
2019-01-30T05:20:40.961Z,0
2019-01-30T05:21:50.984Z,0
2019-01-30T05:23:00.957Z,0
2019-01-30T05:24:10.942Z,0
2019-01-30T05:25:20.930Z,0
2019-01-30T05:26:30.906Z,0
2019-01-30T05:27:40.982Z,0
2019-01-30T05:28:50.978Z,0
2019-01-30T05:30:00.949Z,0
2019-01-30T05:31:10.668Z,0
2019-01-30T05:32:20.636Z,0
2019-01-30T05:33:30.722Z,0
2019-01-30T05:34:40.711Z,0
2019-01-30T05:35:50.693Z,0
2019-01-30T05:37:00.669Z,0
2019-01-30T05:38:10.658Z,0
2019-01-30T05:39:20.734Z,0
2019-01-30T05:40:30.462Z,0
2019-01-30T05:41:40.446Z,0
2019-01-30T05:42:50.413Z,0
2019-01-30T05:44:00.392Z,0
2019-01-30T05:45:10.480Z,0
2019-01-30T05:46:20.463Z,0
2019-01-30T05:47:30.449Z,0
2019-01-30T05:48:40.444Z,0
2019-01-30T05:49:50.421Z,0
2019-01-30T05:51:00.454Z,0
2019-01-30T05:52:10.425Z,0
2019-01-30T05:53:20.403Z,0
2019-01-30T05:54:30.387Z,0
2019-01-30T05:55:40.365Z,0
2019-01-30T05:56:50.491Z,0
2019-01-30T05:58:00.473Z,0
2019-01-30T05:59:10.491Z,0
2019-01-30T06:00:20.462Z,0
2019-01-30T06:01:30.433Z,0
2019-01-30T06:02:40.510Z,0
2019-01-30T06:03:50.489Z,0
2019-01-30T06:05:00.458Z,0
2019-01-30T06:06:10.436Z,0
2019-01-30T06:07:20.413Z,0
2019-01-30T06:08:30.589Z,0
2019-01-30T06:09:40.571Z,0
2019-01-30T06:10:50.546Z,0
2019-01-30T06:12:00.528Z,0
2019-01-30T06:13:10.500Z,0
2019-01-30T06:14:20.587Z,0
2019-01-30T06:15:30.624Z,0
2019-01-30T06:16:40.317Z,0
2019-01-30T06:17:50.307Z,0
2019-01-30T06:19:00.297Z,0
2019-01-30T06:20:10.379Z,0
2019-01-30T06:21:20.456Z,0
2019-01-30T06:22:30.178Z,0
2019-01-30T06:23:40.153Z,0
2019-01-30T06:24:50.135Z,0
2019-01-30T06:25:59.851Z,0
2019-01-30T06:27:09.833Z,0
2019-01-30T06:28:19.836Z,0
2019-01-30T06:29:29.805Z,0
2019-01-30T06:30:39.792Z,0
2019-01-30T06:31:49.814Z,0
2019-01-30T06:32:59.798Z,0
2019-01-30T06:34:09.771Z,0
2019-01-30T06:35:19.746Z,0
2019-01-30T06:36:29.724Z,0
2019-01-30T06:37:39.803Z,0
2019-01-30T06:38:49.457Z,0
2019-01-30T06:39:59.430Z,0
2019-01-30T06:41:09.402Z,0
2019-01-30T06:42:19.121Z,0
2019-01-30T06:43:29.150Z,0
2019-01-30T06:44:39.123Z,0
2019-01-30T06:45:49.091Z,0
2019-01-30T06:46:59.059Z,0
2019-01-30T06:48:09.031Z,0
2019-01-30T06:49:19.100Z,0
2019-01-30T06:50:29.078Z,0
2019-01-30T06:51:39.063Z,0
2019-01-30T06:52:49.035Z,0
2019-01-30T06:53:59.010Z,0
2019-01-30T06:55:09.032Z,0
2019-01-30T06:56:19.002Z,0
2019-01-30T06:57:28.975Z,0
2019-01-30T06:58:38.944Z,0
2019-01-30T06:59:48.919Z,0
2019-01-30T07:01:00.044Z,0
2019-01-30T07:02:10.013Z,0
2019-01-30T07:03:19.989Z,0
2019-01-30T07:04:29.972Z,0
2019-01-30T07:05:39.961Z,0
2019-01-30T07:06:49.979Z,0
2019-01-30T07:07:59.981Z,0
2019-01-30T07:09:09.952Z,0
2019-01-30T07:10:19.937Z,0
2019-01-30T07:11:29.662Z,0
2019-01-30T07:12:39.676Z,0
2019-01-30T07:13:49.652Z,0
2019-01-30T07:14:59.701Z,0
2019-01-30T07:16:09.675Z,0
2019-01-30T07:17:19.644Z,0
2019-01-30T07:18:29.732Z,0
2019-01-30T07:19:39.704Z,0
2019-01-30T07:20:49.682Z,0
2019-01-30T07:21:59.654Z,0
2019-01-30T07:23:09.628Z,0
2019-01-30T07:24:19.699Z,0
2019-01-30T07:25:29.419Z,0
2019-01-30T07:26:39.393Z,5
2019-01-30T07:27:49.363Z,5
2019-01-30T07:28:59.334Z,5
2019-01-30T07:30:09.208Z,5
2019-01-30T07:31:21.656Z,5
2019-01-30T07:32:31.624Z,5
2019-01-30T07:33:41.599Z,5
2019-01-30T07:34:51.575Z,10
2019-01-30T07:36:01.402Z,10
2019-01-30T07:37:11.369Z,10
2019-01-30T07:38:21.343Z,10
2019-01-30T07:39:31.320Z,10
2019-01-30T07:40:41.289Z,10
2019-01-30T07:41:51.359Z,10
2019-01-30T07:43:01.344Z,15
2019-01-30T07:44:11.440Z,15
2019-01-30T07:45:21.157Z,15
2019-01-30T07:46:31.137Z,15
2019-01-30T07:47:41.207Z,15
2019-01-30T07:48:51.181Z,20
2019-01-30T07:50:00.916Z,20
2019-01-30T07:51:10.891Z,20
2019-01-30T07:52:20.863Z,20
2019-01-30T07:53:30.940Z,25
2019-01-30T07:54:40.915Z,25
2019-01-30T07:55:50.886Z,25
2019-01-30T07:57:00.864Z,25
2019-01-30T07:58:13.094Z,30
2019-01-30T07:59:23.163Z,30
2019-01-30T08:00:33.152Z,30
2019-01-30T08:01:43.127Z,30
2019-01-30T08:03:02.098Z,30
2019-01-30T08:04:12.175Z,35
2019-01-30T08:05:25.082Z,35
2019-01-30T08:06:35.067Z,40
2019-01-30T08:07:45.048Z,40
2019-01-30T08:08:56.891Z,40
2019-01-30T08:10:06.870Z,45
2019-01-30T08:11:17.156Z,45
2019-01-30T08:12:27.130Z,45
2019-01-30T08:13:37.105Z,50
2019-01-30T08:14:47.075Z,50
2019-01-30T08:15:57.043Z,50
2019-01-30T08:17:07.067Z,50
2019-01-30T08:18:17.042Z,55
2019-01-30T08:19:26.790Z,55
2019-01-30T08:20:36.764Z,55
2019-01-30T08:21:46.572Z,60
2019-01-30T08:22:56.920Z,60
2019-01-30T08:24:08.116Z,60
2019-01-30T08:25:19.213Z,65
2019-01-30T08:26:30.994Z,65
2019-01-30T08:27:44.804Z,65
2019-01-30T08:28:55.629Z,70
2019-01-30T08:30:06.385Z,70
2019-01-30T08:31:16.621Z,70
2019-01-30T08:32:29.944Z,75
2019-01-30T08:33:39.943Z,75
2019-01-30T08:34:49.966Z,75
2019-01-30T08:35:59.934Z,80
2019-01-30T08:37:09.902Z,80
2019-01-30T08:38:19.870Z,80
2019-01-30T08:39:29.844Z,80
2019-01-30T08:40:40.001Z,80
2019-01-30T08:41:49.976Z,80
2019-01-30T08:43:01.469Z,80
2019-01-30T08:44:11.444Z,80
2019-01-30T08:45:21.092Z,85
2019-01-30T08:46:31.166Z,85
2019-01-30T08:47:41.137Z,85
2019-01-30T08:48:51.107Z,90
2019-01-30T08:50:01.083Z,90
2019-01-30T08:51:10.740Z,95
2019-01-30T08:52:20.816Z,95
2019-01-30T08:53:30.788Z,95
2019-01-30T08:54:40.768Z,100
2019-01-30T08:55:50.749Z,100
2019-01-30T08:57:02.252Z,100
2019-01-30T08:58:12.539Z,105
2019-01-30T08:59:22.557Z,105
2019-01-30T09:00:32.538Z,105
2019-01-30T09:01:42.514Z,105
2019-01-30T09:02:52.501Z,105
2019-01-30T09:04:02.521Z,105
2019-01-30T09:05:12.500Z,105
2019-01-30T09:06:22.222Z,110
2019-01-30T09:07:32.192Z,110
2019-01-30T09:08:42.170Z,110
2019-01-30T09:09:52.139Z,110
2019-01-30T09:11:02.110Z,115
2019-01-30T09:12:12.094Z,115
2019-01-30T09:13:22.065Z,115
2019-01-30T09:14:31.799Z,120
2019-01-30T09:15:41.875Z,125
2019-01-30T09:16:51.868Z,130
2019-01-30T09:18:01.849Z,130
2019-01-30T09:19:11.570Z,130
2019-01-30T09:20:21.544Z,130
2019-01-30T09:21:31.666Z,130
2019-01-30T09:22:41.637Z,135
2019-01-30T09:23:51.713Z,140
2019-01-30T09:25:01.695Z,140
2019-01-30T09:26:11.672Z,150
2019-01-30T09:27:24.053Z,150
2019-01-30T09:28:34.244Z,150
2019-01-30T09:29:44.218Z,150
2019-01-30T09:30:54.196Z,150
2019-01-30T09:32:04.169Z,155
2019-01-30T09:33:25.261Z,155
2019-01-30T09:34:35.607Z,155
2019-01-30T09:35:45.746Z,155
2019-01-30T09:36:55.727Z,155
2019-01-30T09:38:05.530Z,155
2019-01-30T09:39:15.501Z,155
2019-01-30T09:40:25.529Z,155
2019-01-30T09:41:35.506Z,155
2019-01-30T09:42:48.080Z,155
2019-01-30T09:43:58.291Z,160
2019-01-30T09:45:09.918Z,160
2019-01-30T09:46:20.078Z,160
2019-01-30T09:47:30.092Z,160
2019-01-30T09:48:41.860Z,165
2019-01-30T09:49:51.962Z,165
2019-01-30T09:51:02.175Z,165
2019-01-30T09:52:12.216Z,165
2019-01-30T09:53:22.282Z,170
2019-01-30T09:54:32.261Z,170
2019-01-30T09:55:42.395Z,170
2019-01-30T09:56:52.500Z,170
2019-01-30T09:58:02.487Z,175
2019-01-30T09:59:12.465Z,155
2019-01-30T10:00:22.441Z,160
2019-01-30T10:01:32.414Z,155
2019-01-30T10:02:42.400Z,155
2019-01-30T10:03:52.373Z,180
2019-01-30T10:05:02.362Z,185
2019-01-30T10:06:12.463Z,180
2019-01-30T10:07:22.439Z,185
2019-01-30T10:08:32.424Z,180
2019-01-30T10:09:44.737Z,180
2019-01-30T10:10:54.706Z,180
2019-01-30T10:12:04.677Z,185
2019-01-30T10:13:14.807Z,185
2019-01-30T10:14:24.781Z,185
2019-01-30T10:15:34.766Z,185
2019-01-30T10:16:44.739Z,185
2019-01-30T10:17:54.718Z,190
2019-01-30T10:19:04.791Z,190
2019-01-30T10:20:14.775Z,195
2019-01-30T10:21:24.746Z,195
2019-01-30T10:22:34.731Z,195
2019-01-30T10:23:44.710Z,200
2019-01-30T10:24:57.765Z,200
2019-01-30T10:26:07.754Z,205
2019-01-30T10:27:17.733Z,200
2019-01-30T10:28:27.708Z,195
2019-01-30T10:29:37.677Z,200
2019-01-30T10:30:47.767Z,200
2019-01-30T10:31:57.743Z,200
2019-01-30T10:33:07.714Z,205
2019-01-30T10:34:17.694Z,210
2019-01-30T10:35:27.704Z,205
2019-01-30T10:36:37.781Z,205
2019-01-30T10:37:47.508Z,200
2019-01-30T10:38:57.237Z,205
2019-01-30T10:40:07.467Z,205
2019-01-30T10:41:17.442Z,205
2019-01-30T10:42:27.517Z,200
2019-01-30T10:43:37.489Z,195
2019-01-30T10:44:47.459Z,190
2019-01-30T10:45:57.437Z,195
2019-01-30T10:47:07.165Z,205
2019-01-30T10:48:17.263Z,210
2019-01-30T10:49:27.244Z,215
2019-01-30T10:50:37.227Z,215
2019-01-30T10:51:47.199Z,220
2019-01-30T10:52:57.172Z,225
2019-01-30T10:54:07.151Z,225
2019-01-30T10:55:16.812Z,225
2019-01-30T10:56:26.791Z,225
2019-01-30T10:57:36.762Z,230
2019-01-30T10:58:46.732Z,225
2019-01-30T10:59:56.724Z,225
2019-01-30T11:01:06.695Z,225
2019-01-30T11:02:16.667Z,230
2019-01-30T11:03:26.646Z,230
2019-01-30T11:04:36.620Z,235
2019-01-30T11:05:49.144Z,230
2019-01-30T11:06:59.119Z,230
2019-01-30T11:08:09.095Z,230
2019-01-30T11:09:19.068Z,230
2019-01-30T11:10:29.042Z,230
2019-01-30T11:11:39.116Z,230
2019-01-30T11:12:49.091Z,230
2019-01-30T11:13:58.736Z,230
2019-01-30T11:15:10.267Z,235
2019-01-30T11:16:20.251Z,235
2019-01-30T11:17:30.280Z,235
2019-01-30T11:18:40.256Z,235
2019-01-30T11:19:52.395Z,235
2019-01-30T11:21:02.385Z,235
2019-01-30T11:22:12.359Z,230
2019-01-30T11:23:22.339Z,230
2019-01-30T11:24:32.344Z,230
2019-01-30T11:25:42.323Z,225
2019-01-30T11:26:52.054Z,220
2019-01-30T11:28:01.776Z,215
2019-01-30T11:29:11.899Z,215
2019-01-30T11:30:21.873Z,215
2019-01-30T11:31:31.852Z,220
2019-01-30T11:32:41.834Z,225
2019-01-30T11:33:51.808Z,225
2019-01-30T11:35:01.892Z,225
2019-01-30T11:36:11.882Z,225
2019-01-30T11:37:21.865Z,225
2019-01-30T11:38:31.850Z,225
2019-01-30T11:39:41.838Z,225
2019-01-30T11:40:51.824Z,235
2019-01-30T11:42:01.844Z,240
2019-01-30T11:43:11.821Z,235
2019-01-30T11:44:21.791Z,230
2019-01-30T11:45:31.768Z,235
2019-01-30T11:46:41.743Z,235
2019-01-30T11:47:51.716Z,235
2019-01-30T11:49:05.818Z,230
2019-01-30T11:50:15.796Z,225
2019-01-30T11:51:25.779Z,240
2019-01-30T11:52:35.852Z,245
2019-01-30T11:53:45.824Z,250
2019-01-30T11:54:55.798Z,245
2019-01-30T11:56:05.790Z,245
2019-01-30T11:57:15.762Z,245
2019-01-30T11:58:25.736Z,240
2019-01-30T11:59:35.714Z,235
2019-01-30T12:00:45.687Z,230
2019-01-30T12:01:55.664Z,235
2019-01-30T12:03:05.639Z,240
2019-01-30T12:04:25.124Z,240
2019-01-30T12:05:35.097Z,235
2019-01-30T12:06:45.076Z,240
2019-01-30T12:07:55.048Z,235
2019-01-30T12:09:05.048Z,225
2019-01-30T12:10:15.026Z,230
2019-01-30T12:11:25.009Z,235
2019-01-30T12:12:34.995Z,225
2019-01-30T12:13:44.968Z,225
2019-01-30T12:14:54.953Z,225
2019-01-30T12:16:04.933Z,230
2019-01-30T12:17:14.908Z,240
2019-01-30T12:18:24.883Z,245
2019-01-30T12:19:34.860Z,240
2019-01-30T12:20:44.831Z,230
2019-01-30T12:21:54.906Z,225
2019-01-30T12:23:04.885Z,225
2019-01-30T12:24:14.863Z,235
2019-01-30T12:25:24.916Z,240
2019-01-30T12:26:34.892Z,230
2019-01-30T12:27:45.046Z,230
2019-01-30T12:28:55.024Z,235
2019-01-30T12:30:05.019Z,225
2019-01-30T12:31:14.994Z,220
2019-01-30T12:32:24.967Z,220
2019-01-30T12:33:35.048Z,220
2019-01-30T12:34:45.018Z,220
2019-01-30T12:35:54.990Z,230
2019-01-30T12:37:05.024Z,230
2019-01-30T12:38:15.002Z,230
2019-01-30T12:39:25.023Z,225
2019-01-30T12:40:34.740Z,220
2019-01-30T12:41:45.301Z,225
2019-01-30T12:42:55.275Z,220
2019-01-30T12:44:05.256Z,215
2019-01-30T12:45:15.327Z,210
2019-01-30T12:46:26.844Z,210
2019-01-30T12:47:36.966Z,210
2019-01-30T12:48:48.845Z,215
2019-01-30T12:49:59.018Z,215
2019-01-30T12:51:09.108Z,215
2019-01-30T12:52:19.077Z,220
2019-01-30T12:53:28.811Z,215
2019-01-30T12:54:38.786Z,215
2019-01-30T12:55:48.859Z,220
2019-01-30T12:56:58.936Z,215
2019-01-30T12:58:08.918Z,200
2019-01-30T12:59:18.891Z,200
2019-01-30T13:00:28.866Z,200
2019-01-30T13:01:40.336Z,200
2019-01-30T13:02:50.411Z,200
2019-01-30T13:04:00.492Z,195
2019-01-30T13:05:10.478Z,195
2019-01-30T13:06:20.547Z,195
2019-01-30T13:07:30.528Z,195
2019-01-30T13:08:40.614Z,185
2019-01-30T13:09:50.593Z,180
2019-01-30T13:11:00.574Z,180
2019-01-30T13:12:10.559Z,180
2019-01-30T13:13:20.536Z,175
2019-01-30T13:14:30.661Z,175
2019-01-30T13:15:40.688Z,175
2019-01-30T13:16:50.659Z,175
2019-01-30T13:18:00.658Z,170
2019-01-30T13:19:10.638Z,170
2019-01-30T13:20:20.523Z,165
2019-01-30T13:21:30.495Z,160
2019-01-30T13:22:40.465Z,160
2019-01-30T13:23:50.439Z,160
2019-01-30T13:25:00.450Z,160
2019-01-30T13:26:10.477Z,160
2019-01-30T13:27:20.448Z,155
2019-01-30T13:28:30.423Z,155
2019-01-30T13:29:40.393Z,155
2019-01-30T13:30:52.746Z,150
2019-01-30T13:32:02.821Z,150
2019-01-30T13:33:12.546Z,150
2019-01-30T13:34:22.575Z,145
2019-01-30T13:35:32.547Z,145
2019-01-30T13:36:45.023Z,150
2019-01-30T13:37:55.147Z,145
2019-01-30T13:39:04.868Z,145
2019-01-30T13:40:14.601Z,140
2019-01-30T13:41:24.609Z,140
2019-01-30T13:42:34.595Z,135
2019-01-30T13:43:44.620Z,135
2019-01-30T13:44:54.593Z,135
2019-01-30T13:46:14.154Z,135
2019-01-30T13:47:24.124Z,135
2019-01-30T13:48:36.461Z,135
2019-01-30T13:49:46.442Z,135
2019-01-30T13:50:56.455Z,130
2019-01-30T13:52:06.522Z,130
2019-01-30T13:53:19.257Z,130
2019-01-30T13:54:29.385Z,130
2019-01-30T13:55:39.387Z,125
2019-01-30T13:56:49.413Z,120
2019-01-30T13:57:59.425Z,115
2019-01-30T13:59:09.425Z,115
2019-01-30T14:00:19.613Z,115
2019-01-30T14:01:29.682Z,110
2019-01-30T14:02:39.740Z,105
2019-01-30T14:03:49.758Z,105
2019-01-30T14:05:08.702Z,100
